Time;durP1;ratioP1;P1;durP2;ratioP2;P2;SDS_P1;SDS_P2;PMS_P1;PMS_P2;Temp;Humidity;BMP_temperature;BMP_pressure;BME280_temperature;BME280_humidity;BME280_pressure;Samples;Min_cycle;Max_cycle;Signal;HPM_P1;HPM_P2
2021/12/25 00:01:25;;;;;;;4.28;2.05;;;0.80;99.90;;;;;;5110053;28;20047;-81
2021/12/25 00:03:51;;;;;;;5.63;1.73;;;0.30;99.90;;;;;;5110774;28;20047;-81
2021/12/25 00:06:17;;;;;;;6.35;1.90;;;-0.40;99.90;;;;;;5093380;28;20055;-81
2021/12/25 00:08:43;;;;;;;6.22;2.15;;;-0.50;99.90;;;;;;5110729;28;20112;-81
2021/12/25 00:11:10;;;;;;;6.75;1.80;;;0.20;99.90;;;;;;5093040;28;20050;-81
2021/12/25 00:13:38;;;;;;;5.15;1.90;;;-0.70;99.90;;;;;;5093492;28;20051;-81
2021/12/25 00:16:04;;;;;;;5.38;1.90;;;-0.70;99.90;;;;;;5076880;28;20103;-81
2021/12/25 00:18:29;;;;;;;2.70;1.70;;;-0.70;99.90;;;;;;5109492;28;20730;-81
2021/12/25 00:20:55;;;;;;;4.22;1.85;;;0.80;99.90;;;;;;5111464;28;20122;-81
2021/12/25 00:23:21;;;;;;;6.80;1.95;;;-0.70;99.90;;;;;;5091811;28;20467;-81
2021/12/25 00:25:53;;;;;;;5.05;1.98;;;-0.90;99.90;;;;;;5076826;28;20404;-81
2021/12/25 00:28:53;;;;;;;3.50;1.98;;;-0.80;99.90;;;;;;5077720;28;20051;-81
2021/12/25 00:36:09;;;;;;;3.60;1.75;;;-1.00;99.90;;;;;;5110126;28;20147;-81
2021/12/25 00:38:37;;;;;;;4.07;1.40;;;0.30;99.90;;;;;;5092602;28;20506;-81
2021/12/25 00:41:05;;;;;;;2.33;1.40;;;-1.00;99.90;;;;;;5093444;28;20048;-81
2021/12/25 00:43:31;;;;;;;2.65;1.50;;;0.80;99.90;;;;;;5110700;28;20135;-81
2021/12/25 00:45:57;;;;;;;4.35;1.50;;;-1.00;99.90;;;;;;5109903;28;20126;-81
2021/12/25 00:48:22;;;;;;;1.65;1.50;;;0.10;99.90;;;;;;5092590;28;20105;-81
2021/12/25 00:50:48;;;;;;;3.72;1.70;;;-1.10;99.90;;;;;;5109754;28;20047;-81
2021/12/25 00:53:14;;;;;;;3.97;1.55;;;-1.30;99.90;;;;;;5092900;28;20059;-81
2021/12/25 00:55:39;;;;;;;3.90;1.45;;;-0.30;99.90;;;;;;5109345;28;20070;-81
2021/12/25 00:58:05;;;;;;;3.25;1.60;;;0.20;99.90;;;;;;5093158;28;20387;-81
2021/12/25 01:00:31;;;;;;;2.67;1.83;;;-1.30;99.90;;;;;;5075595;28;20100;-81
2021/12/25 01:02:56;;;;;;;1.88;1.42;;;-1.30;99.90;;;;;;5092975;28;20043;-82
2021/12/25 01:05:22;;;;;;;2.03;1.33;;;-1.20;99.90;;;;;;5109515;28;20054;-80
2021/12/25 01:07:48;;;;;;;6.15;1.90;;;-0.10;99.90;;;;;;5110262;28;20059;-80
2021/12/25 01:10:17;;;;;;;2.55;1.60;;;-0.50;99.90;;;;;;5093036;28;20087;-80
2021/12/25 01:12:58;;;;;;;3.13;1.80;;;-1.30;99.90;;;;;;5109217;28;20511;-80
2021/12/25 01:15:34;;;;;;;3.47;2.05;;;-1.10;99.90;;;;;;5109234;28;20051;-81
2021/12/25 01:23:41;;;;;;;2.58;1.65;;;-1.50;99.90;;;;;;5111069;28;20448;-82
2021/12/25 01:26:08;;;;;;;5.95;1.50;;;-0.40;99.90;;;;;;5108945;28;20491;-82
2021/12/25 01:47:44;;;;;;;4.13;1.85;;;-1.70;99.90;;;;;;5113514;28;20832;-82
2021/12/25 01:50:08;;;;;;;2.63;1.55;;;-1.60;99.90;;;;;;5096608;28;20059;-83
2021/12/25 01:52:34;;;;;;;4.63;1.92;;;-1.70;99.90;;;;;;5096167;28;20043;-83
2021/12/25 01:55:06;;;;;;;2.80;1.63;;;-0.80;99.90;;;;;;5081375;28;20445;-83
2021/12/25 01:57:32;;;;;;;2.05;1.45;;;-1.80;99.90;;;;;;5101042;28;20063;-82
2021/12/25 01:59:58;;;;;;;4.07;1.80;;;-1.80;99.90;;;;;;5088599;28;20051;-83
2021/12/25 02:02:24;;;;;;;4.43;2.00;;;-1.00;99.90;;;;;;5096854;28;20051;-82
2021/12/25 02:04:50;;;;;;;1.60;1.50;;;-1.70;99.90;;;;;;5097230;28;20051;-85
2021/12/25 02:07:16;;;;;;;3.78;2.20;;;-1.80;99.90;;;;;;5113883;28;20055;-84
2021/12/25 02:09:41;;;;;;;4.28;1.60;;;-1.90;99.90;;;;;;5096130;28;20054;-84
2021/12/25 02:12:07;;;;;;;7.05;2.30;;;-1.70;99.90;;;;;;5096161;28;20167;-85
2021/12/25 02:14:34;;;;;;;3.92;1.63;;;-1.70;99.90;;;;;;5112728;28;20043;-84
2021/12/25 02:17:13;;;;;;;2.30;1.70;;;-1.30;99.90;;;;;;5113160;28;20055;-84
2021/12/25 02:19:56;;;;;;;4.32;1.75;;;-1.80;99.90;;;;;;5112791;28;20580;-84
2021/12/25 02:22:27;;;;;;;2.50;1.98;;;-1.20;99.90;;;;;;5095999;28;20402;-84
2021/12/25 02:24:53;;;;;;;6.30;2.05;;;-1.90;99.90;;;;;;5080623;28;20472;-84
2021/12/25 02:27:18;;;;;;;4.35;2.08;;;-1.90;99.90;;;;;;5113270;28;20055;-84
2021/12/25 02:29:44;;;;;;;5.70;1.85;;;-1.90;99.90;;;;;;5078646;28;20386;-84
2021/12/25 02:32:09;;;;;;;4.57;1.70;;;-1.90;99.90;;;;;;5113126;28;20081;-84
2021/12/25 02:34:35;;;;;;;6.20;1.90;;;-2.00;99.90;;;;;;5095128;28;20055;-84
2021/12/25 02:37:01;;;;;;;6.05;2.30;;;-0.30;99.90;;;;;;5095979;28;20058;-84
2021/12/25 02:39:27;;;;;;;3.88;1.80;;;-2.10;99.90;;;;;;5112140;28;20058;-84
2021/12/25 02:41:52;;;;;;;3.22;2.00;;;-2.00;99.90;;;;;;5094759;28;20559;-84
2021/12/25 02:44:18;;;;;;;2.58;1.88;;;-2.00;99.90;;;;;;5112286;28;20089;-84
2021/12/25 02:46:44;;;;;;;1.77;1.67;;;-2.10;99.90;;;;;;5077677;28;20043;-82
2021/12/25 02:49:12;;;;;;;2.20;1.65;;;-2.10;99.90;;;;;;5079196;28;20128;-83
2021/12/25 02:51:39;;;;;;;4.47;1.95;;;-2.20;99.90;;;;;;5094449;28;20052;-83
2021/12/25 02:54:05;;;;;;;5.55;1.80;;;-2.20;99.90;;;;;;5113675;28;20070;-83
2021/12/25 02:56:30;;;;;;;2.47;2.13;;;-2.10;99.90;;;;;;5094988;28;20118;-83
2021/12/25 02:58:56;;;;;;;4.50;1.55;;;-2.30;99.90;;;;;;5094760;28;20055;-83
2021/12/25 03:01:23;;;;;;;2.45;2.00;;;-2.10;99.90;;;;;;5094862;28;20134;-83
2021/12/25 03:03:49;;;;;;;1.60;1.50;;;-2.30;99.90;;;;;;5111304;28;20498;-83
2021/12/25 03:06:14;;;;;;;1.58;1.50;;;-2.10;99.90;;;;;;5095206;28;20051;-84
2021/12/25 03:08:40;;;;;;;3.08;2.00;;;-1.50;99.90;;;;;;5111219;28;20456;-83
2021/12/25 03:11:06;;;;;;;1.77;1.67;;;-2.20;99.90;;;;;;5094783;28;20051;-82
2021/12/25 03:16:03;;;;;;;3.28;1.70;;;-0.90;99.90;;;;;;5078754;28;20106;-83
2021/12/25 03:18:32;;;;;;;3.28;1.80;;;-2.40;99.90;;;;;;5111615;28;20104;-83
2021/12/25 03:21:00;;;;;;;5.00;1.80;;;-2.40;99.90;;;;;;5093985;28;20495;-84
2021/12/25 03:23:27;;;;;;;3.30;1.80;;;-2.50;99.90;;;;;;5094422;28;20043;-83
2021/12/25 03:25:53;;;;;;;2.42;1.70;;;-2.40;99.90;;;;;;5094435;28;20124;-83
2021/12/25 03:28:21;;;;;;;1.60;1.50;;;-2.60;99.90;;;;;;5111623;28;20402;-83
2021/12/25 03:30:47;;;;;;;2.40;1.63;;;-2.60;99.90;;;;;;5093942;28;20058;-83
2021/12/25 03:33:15;;;;;;;4.07;1.92;;;-2.50;99.90;;;;;;5094385;28;20052;-83
2021/12/25 03:35:41;;;;;;;2.13;1.85;;;-2.50;99.90;;;;;;5077056;28;20051;-83
2021/12/25 03:38:09;;;;;;;1.88;1.52;;;-2.40;99.90;;;;;;5077442;28;20115;-83
2021/12/25 03:40:34;;;;;;;4.22;1.70;;;-1.10;99.90;;;;;;5094423;28;20062;-83
2021/12/25 03:43:00;;;;;;;2.92;1.92;;;-2.70;99.90;;;;;;5076850;28;20056;-83
2021/12/25 03:45:29;;;;;;;2.85;1.92;;;-2.60;99.90;;;;;;5077492;28;20047;-83
2021/12/25 03:48:05;;;;;;;2.20;1.90;;;-2.80;99.90;;;;;;5110296;28;20059;-83
2021/12/25 03:58:43;;;;;;;1.75;1.65;;;-2.70;99.90;;;;;;5095635;28;20051;-83
2021/12/25 04:01:25;;;;;;;1.90;1.80;;;-2.90;99.90;;;;;;5112139;28;20074;-83
2021/12/25 04:06:36;;;;;;;2.28;2.08;;;-2.90;99.90;;;;;;5084495;28;20060;-82
2021/12/25 04:09:09;;;;;;;2.00;1.90;;;-3.00;99.90;;;;;;5110369;28;20047;-82
2021/12/25 04:11:35;;;;;;;2.60;2.10;;;-3.00;99.90;;;;;;5094597;28;20092;-82
2021/12/25 04:14:01;;;;;;;4.13;2.03;;;-2.30;99.90;;;;;;5110247;28;20051;-82
2021/12/25 04:16:26;;;;;;;3.17;2.10;;;-2.80;99.90;;;;;;5076452;28;20058;-81
2021/12/25 04:18:53;;;;;;;2.20;2.00;;;-1.50;99.90;;;;;;5092796;28;20130;-82
2021/12/25 04:21:19;;;;;;;2.08;1.83;;;-3.10;99.90;;;;;;5093600;28;20514;-82
2021/12/25 04:23:45;;;;;;;2.58;1.98;;;-3.00;99.90;;;;;;5092979;28;20084;-83
2021/12/25 04:26:12;;;;;;;1.80;1.70;;;-2.80;99.90;;;;;;5109918;28;20048;-82
2021/12/25 04:28:45;;;;;;;4.78;2.58;;;-3.10;99.90;;;;;;5077060;28;20051;-82
2021/12/25 05:04:23;;;;;;;3.33;2.03;;;-3.40;99.90;;;;;;5110041;28;20044;-83
2021/12/25 05:06:49;;;;;;;3.95;1.80;;;-3.40;99.90;;;;;;5094345;28;20508;-83
2021/12/25 05:09:15;;;;;;;2.65;1.80;;;-3.40;99.90;;;;;;5111417;28;20090;-83
2021/12/25 05:11:40;;;;;;;2.03;1.83;;;-3.40;99.90;;;;;;5114145;28;20050;-82
2021/12/25 05:14:06;;;;;;;4.30;1.80;;;-3.50;99.90;;;;;;5114660;28;20089;-83
2021/12/25 05:16:32;;;;;;;3.75;2.08;;;-2.70;99.90;;;;;;5096993;28;20043;-82
2021/12/25 05:18:57;;;;;;;2.08;1.80;;;-2.50;99.90;;;;;;5079384;28;20075;-82
2021/12/25 05:21:23;;;;;;;2.05;1.90;;;-3.40;99.90;;;;;;5113797;28;20364;-82
2021/12/25 05:23:49;;;;;;;5.82;2.10;;;-3.40;99.90;;;;;;5114165;28;20057;-82
2021/12/25 05:26:15;;;;;;;1.92;1.83;;;-2.50;99.90;;;;;;5096318;28;20087;-82
2021/12/25 05:28:43;;;;;;;1.80;1.70;;;-3.50;99.90;;;;;;5080127;28;20200;-82
2021/12/25 05:31:09;;;;;;;2.15;1.67;;;-3.50;99.90;;;;;;5096416;28;20548;-82
2021/12/25 05:33:36;;;;;;;2.13;1.60;;;-3.50;99.90;;;;;;5079335;28;20051;-82
2021/12/25 05:36:02;;;;;;;1.95;1.75;;;-3.50;99.90;;;;;;5113015;28;20083;-83
2021/12/25 05:38:27;;;;;;;3.83;1.80;;;-3.50;99.90;;;;;;5096710;28;20131;-81
2021/12/25 05:40:53;;;;;;;2.33;1.83;;;-2.80;99.90;;;;;;5096313;28;20874;-83
2021/12/25 05:43:19;;;;;;;3.33;2.00;;;-3.50;99.90;;;;;;5114093;28;20078;-83
2021/12/25 05:45:45;;;;;;;2.08;1.80;;;-3.60;99.90;;;;;;5096686;28;20095;-83
2021/12/25 05:48:11;;;;;;;2.72;2.00;;;-3.60;99.90;;;;;;5079220;28;20043;-83
2021/12/25 05:50:37;;;;;;;5.28;1.98;;;-3.60;99.90;;;;;;5113356;28;20168;-83
2021/12/25 05:53:03;;;;;;;4.63;2.00;;;-3.10;99.90;;;;;;5079350;28;20168;-83
2021/12/25 05:55:29;;;;;;;2.95;1.88;;;-3.70;99.90;;;;;;5096583;28;20061;-83
2021/12/25 05:57:55;;;;;;;1.75;1.65;;;-3.70;99.90;;;;;;5096049;28;20479;-83
2021/12/25 06:00:20;;;;;;;2.03;1.92;;;-3.80;99.90;;;;;;5095420;28;20047;-83
2021/12/25 06:02:46;;;;;;;3.38;2.10;;;-3.70;99.90;;;;;;5096020;28;20087;-83
2021/12/25 06:05:12;;;;;;;5.78;2.10;;;-2.30;99.90;;;;;;5095464;28;20138;-83
2021/12/25 06:07:38;;;;;;;2.28;1.88;;;-3.80;99.90;;;;;;5112981;28;20138;-83
2021/12/25 06:10:07;;;;;;;5.70;2.10;;;-3.80;99.90;;;;;;5095480;28;20035;-83
2021/12/25 06:12:33;;;;;;;3.83;1.98;;;-3.70;99.90;;;;;;5096419;28;20058;-81
2021/12/25 06:15:01;;;;;;;5.07;2.10;;;-3.70;99.90;;;;;;5112550;28;20047;-83
2021/12/25 06:17:27;;;;;;;4.57;2.03;;;-3.80;99.90;;;;;;5096258;28;20104;-83
2021/12/25 06:19:52;;;;;;;1.80;1.70;;;-3.60;99.90;;;;;;5095117;28;20433;-83
2021/12/25 06:22:18;;;;;;;3.67;2.10;;;-3.60;99.90;;;;;;5094640;28;20159;-82
2021/12/25 06:24:49;;;;;;;1.77;1.67;;;-3.80;99.90;;;;;;5095691;28;20108;-82
2021/12/25 06:27:18;;;;;;;2.83;1.92;;;-3.60;99.90;;;;;;5111800;28;20050;-82
2021/12/25 06:29:44;;;;;;;2.17;1.80;;;-3.70;99.90;;;;;;5112384;28;20089;-82
2021/12/25 06:32:10;;;;;;;2.25;1.83;;;-3.80;99.90;;;;;;5094966;28;20079;-83
2021/12/25 06:34:36;;;;;;;4.03;2.35;;;-4.00;99.90;;;;;;5113094;28;20055;-83
2021/12/25 06:37:01;;;;;;;1.92;1.83;;;-3.90;99.90;;;;;;5112314;28;20130;-83
2021/12/25 06:39:27;;;;;;;2.90;1.83;;;-4.00;99.90;;;;;;5077909;28;20043;-84
2021/12/25 06:41:53;;;;;;;2.55;2.10;;;-3.80;99.90;;;;;;5112204;28;20530;-84
2021/12/25 06:44:20;;;;;;;2.47;1.90;;;-3.80;99.90;;;;;;5111650;28;20066;-83
2021/12/25 06:46:46;;;;;;;4.88;2.75;;;-3.80;99.90;;;;;;5112008;28;20112;-84
2021/12/25 06:49:12;;;;;;;4.50;2.35;;;-3.20;99.90;;;;;;5094934;28;20131;-82
2021/12/25 06:51:38;;;;;;;4.90;1.95;;;-3.90;99.90;;;;;;5094801;28;20127;-82
2021/12/25 06:54:06;;;;;;;6.97;2.00;;;-3.90;99.90;;;;;;5111502;28;20164;-82
2021/12/25 06:56:32;;;;;;;2.20;1.88;;;-3.80;99.90;;;;;;5111953;28;20118;-82
2021/12/25 06:58:58;;;;;;;2.28;2.08;;;-3.90;99.90;;;;;;5111837;28;20035;-82
2021/12/25 07:01:23;;;;;;;3.22;2.10;;;-3.00;99.90;;;;;;5111352;28;20630;-82
2021/12/25 07:03:49;;;;;;;2.13;1.95;;;-4.10;99.90;;;;;;5112551;28;20585;-82
2021/12/25 07:06:15;;;;;;;2.72;2.13;;;-4.10;99.90;;;;;;5111873;28;20403;-82
2021/12/25 07:08:40;;;;;;;2.85;2.10;;;-4.00;99.90;;;;;;5111574;28;20340;-83
2021/12/25 07:11:06;;;;;;;3.72;2.15;;;-4.10;99.90;;;;;;5111074;28;20052;-82
2021/12/25 07:13:32;;;;;;;2.30;2.08;;;-4.10;99.90;;;;;;5077392;28;20051;-83
2021/12/25 07:15:57;;;;;;;2.78;1.90;;;-4.20;99.90;;;;;;5111183;28;20036;-83
2021/12/25 07:18:23;;;;;;;2.00;1.90;;;-4.20;99.90;;;;;;5110486;28;20070;-84
2021/12/25 07:20:50;;;;;;;3.00;2.00;;;-4.10;99.90;;;;;;5110872;28;20132;-83
2021/12/25 07:23:16;;;;;;;3.58;2.20;;;-4.10;99.90;;;;;;5109977;28;20051;-82
2021/12/25 07:25:42;;;;;;;2.45;1.90;;;-4.20;99.90;;;;;;5077343;28;20080;-83
2021/12/25 07:28:08;;;;;;;3.03;2.17;;;-3.90;99.90;;;;;;5111105;28;20070;-83
2021/12/25 07:30:34;;;;;;;2.85;2.15;;;-4.00;99.90;;;;;;5110273;28;20044;-83
2021/12/25 07:32:59;;;;;;;2.20;2.10;;;-4.10;99.90;;;;;;5109632;28;20048;-82
2021/12/25 07:35:26;;;;;;;2.13;1.92;;;-4.10;99.90;;;;;;5092992;28;20055;-84
2021/12/25 07:37:51;;;;;;;6.20;2.30;;;-3.70;99.90;;;;;;5127766;27;20499;-82
2021/12/25 07:40:17;;;;;;;1.90;1.80;;;-3.70;99.90;;;;;;5110059;28;20051;-82
2021/12/25 07:42:43;;;;;;;2.20;2.10;;;-3.90;99.90;;;;;;5076915;28;20167;-83
2021/12/25 07:45:10;;;;;;;5.72;2.13;;;-4.00;99.90;;;;;;5077077;28;20051;-83
2021/12/25 07:47:39;;;;;;;2.20;2.00;;;-2.30;99.90;;;;;;5093848;27;20130;-84
2021/12/25 07:50:05;;;;;;;2.10;1.95;;;-3.10;99.90;;;;;;5127419;27;20051;-82
2021/12/25 07:52:31;;;;;;;3.17;2.13;;;-4.10;99.90;;;;;;5128147;27;20357;-83
2021/12/25 07:54:56;;;;;;;2.53;2.05;;;-4.00;99.90;;;;;;5077457;28;20055;-84
2021/12/25 07:57:22;;;;;;;2.22;2.10;;;-4.10;99.90;;;;;;5128111;27;20051;-83
2021/12/25 07:59:48;;;;;;;3.97;2.00;;;-4.00;99.90;;;;;;5094442;28;20055;-83
2021/12/25 08:02:14;;;;;;;2.30;2.08;;;-4.10;99.90;;;;;;5093478;28;20059;-82
2021/12/25 08:04:39;;;;;;;1.65;1.58;;;-4.10;99.90;;;;;;5127485;27;20055;-83
2021/12/25 08:07:05;;;;;;;5.50;2.13;;;-2.70;99.90;;;;;;5093489;28;20131;-83
2021/12/25 08:09:31;;;;;;;2.17;2.00;;;-4.10;99.90;;;;;;5110104;28;20051;-83
2021/12/25 08:11:58;;;;;;;2.08;1.90;;;-4.00;99.90;;;;;;5093244;28;20043;-85
2021/12/25 08:14:25;;;;;;;4.00;2.03;;;-3.50;99.90;;;;;;5109789;28;20100;-82
2021/12/25 08:16:59;;;;;;;3.00;2.20;;;-4.00;99.90;;;;;;5076537;28;20048;-86
2021/12/25 08:19:25;;;;;;;5.78;2.20;;;-4.10;99.90;;;;;;5126927;27;20150;-83
2021/12/25 08:21:51;;;;;;;2.30;2.10;;;-4.20;99.90;;;;;;5110069;28;20123;-84
2021/12/25 08:24:17;;;;;;;1.98;1.77;;;-4.10;99.90;;;;;;5092377;28;20499;-83
2021/12/25 08:26:43;;;;;;;2.80;2.20;;;-4.20;99.90;;;;;;5059884;28;20499;-85
2021/12/25 08:29:08;;;;;;;4.20;2.22;;;-4.20;99.90;;;;;;5076396;28;20395;-86
2021/12/25 08:31:34;;;;;;;2.05;1.95;;;-4.20;99.90;;;;;;5092553;28;20047;-84
2021/12/25 08:34:00;;;;;;;2.20;2.10;;;-4.10;99.90;;;;;;5109913;28;20059;-83
2021/12/25 08:36:25;;;;;;;4.40;2.60;;;-4.00;99.90;;;;;;5126426;27;20043;-84
2021/12/25 08:38:51;;;;;;;2.47;2.05;;;-4.00;99.90;;;;;;5127270;27;20140;-84
2021/12/25 08:41:17;;;;;;;5.40;2.30;;;-4.00;99.90;;;;;;5093170;28;20082;-84
2021/12/25 08:43:47;;;;;;;2.00;1.90;;;-3.90;99.90;;;;;;5126543;27;20548;-83
2021/12/25 08:46:18;;;;;;;4.25;2.38;;;-3.80;99.90;;;;;;5127144;28;20091;-84
2021/12/25 08:48:44;;;;;;;1.80;1.70;;;-2.50;99.90;;;;;;5093908;28;20067;-84
2021/12/25 08:51:09;;;;;;;2.85;2.00;;;-3.20;99.90;;;;;;5109686;28;20040;-85
2021/12/25 08:53:35;;;;;;;2.88;1.77;;;-2.90;99.90;;;;;;5092858;28;20047;-84
2021/12/25 08:56:01;;;;;;;3.83;1.95;;;-1.40;99.90;;;;;;5092798;28;20044;-84
2021/12/25 08:58:27;;;;;;;2.35;1.95;;;-2.30;99.90;;;;;;5092711;28;20109;-84
2021/12/25 09:00:56;;;;;;;4.57;1.90;;;-1.90;99.90;;;;;;5093080;28;20048;-84
2021/12/25 09:03:25;;;;;;;2.53;2.25;;;-1.40;99.90;;;;;;5092973;28;20063;-84
2021/12/25 09:05:55;;;;;;;3.78;3.05;;;-1.00;99.90;;;;;;5127186;28;20064;-84
2021/12/25 09:08:21;;;;;;;7.55;2.00;;;-0.70;99.90;;;;;;5076065;28;20053;-84
2021/12/25 09:10:47;;;;;;;1.70;1.50;;;-0.30;99.90;;;;;;5092633;28;20070;-84
2021/12/25 09:13:12;;;;;;;3.33;2.17;;;0.50;99.90;;;;;;5109970;28;20451;-85
2021/12/25 09:15:38;;;;;;;1.90;1.70;;;-1.40;99.90;;;;;;5109299;28;20471;-84
2021/12/25 09:18:04;;;;;;;1.60;1.50;;;-0.50;99.90;;;;;;5127102;28;20043;-85
2021/12/25 09:20:29;;;;;;;3.42;1.52;;;-0.80;99.90;;;;;;5092202;28;20083;-84
2021/12/25 09:22:57;;;;;;;2.45;1.95;;;-0.90;99.90;;;;;;5076151;28;20063;-84
2021/12/25 09:25:24;;;;;;;2.78;1.60;;;-0.20;99.90;;;;;;5092995;28;20062;-84
2021/12/25 09:27:50;;;;;;;2.90;1.80;;;-1.30;99.90;;;;;;5092972;28;20119;-84
2021/12/25 09:30:15;;;;;;;2.03;1.30;;;-0.30;99.90;;;;;;5075992;28;20047;-84
2021/12/25 09:32:41;;;;;;;2.33;1.80;;;-1.60;99.90;;;;;;5092043;28;20065;-84
2021/12/25 09:35:07;;;;;;;3.55;1.83;;;-1.80;99.90;;;;;;5111456;28;20060;-85
2021/12/25 09:37:33;;;;;;;4.57;1.95;;;-1.80;99.90;;;;;;5109426;28;20364;-84
2021/12/25 09:39:59;;;;;;;3.13;1.80;;;-2.10;99.90;;;;;;5075887;28;20105;-85
2021/12/25 09:42:25;;;;;;;5.47;1.90;;;-2.20;99.90;;;;;;5075944;28;20132;-85
2021/12/25 09:44:52;;;;;;;7.53;2.17;;;-2.20;99.90;;;;;;5092253;28;20410;-85
2021/12/25 09:47:18;;;;;;;1.77;1.65;;;-1.90;99.90;;;;;;5092247;28;20082;-85
2021/12/25 09:49:43;;;;;;;2.38;1.80;;;-1.80;99.90;;;;;;5109237;28;20082;-85
2021/12/25 09:52:09;;;;;;;2.20;1.80;;;-2.00;99.90;;;;;;5092585;28;20043;-85
2021/12/25 09:54:34;;;;;;;4.45;1.92;;;-2.20;99.90;;;;;;5108885;28;20047;-84
2021/12/25 09:57:00;;;;;;;6.18;1.90;;;-2.30;99.90;;;;;;5111681;28;20048;-85
2021/12/25 09:59:26;;;;;;;1.80;1.70;;;-2.40;99.90;;;;;;5096298;28;20306;-84
2021/12/25 10:01:53;;;;;;;3.35;1.70;;;-2.30;99.90;;;;;;5095674;28;20534;-85
2021/12/25 10:04:33;;;;;;;7.70;2.10;;;-2.20;99.90;;;;;;5129733;27;20059;-85
2021/12/25 10:07:21;;;;;;;4.13;2.45;;;-2.20;99.90;;;;;;5096514;28;20087;-85
2021/12/25 10:10:10;;;;;;;3.05;1.90;;;-2.00;99.90;;;;;;5113262;27;20058;-85
2021/12/25 10:12:45;;;;;;;2.78;1.85;;;-2.00;99.90;;;;;;5112353;28;20373;-85
2021/12/25 10:15:13;;;;;;;6.20;1.60;;;-1.50;99.90;;;;;;5129957;27;20051;-85
2021/12/25 10:17:58;;;;;;;3.47;1.63;;;-1.80;99.90;;;;;;5095725;28;20079;-84
2021/12/25 10:20:29;;;;;;;2.35;1.70;;;-1.60;99.90;;;;;;5095913;28;20036;-84
2021/12/25 10:23:06;;;;;;;1.75;1.65;;;-1.80;99.90;;;;;;5096141;28;20054;-85
2021/12/25 10:25:43;;;;;;;2.90;1.88;;;-1.90;99.90;;;;;;5096068;28;20408;-83
2021/12/25 10:28:09;;;;;;;2.15;1.73;;;-1.80;99.90;;;;;;5096938;28;20052;-84
2021/12/25 10:30:54;;;;;;;4.47;2.25;;;-1.90;99.90;;;;;;5119833;28;20076;-84
2021/12/25 10:33:29;;;;;;;2.50;1.55;;;-2.10;99.90;;;;;;5136172;28;20047;-84
2021/12/25 10:35:55;;;;;;;1.23;1.23;;;-0.80;99.90;;;;;;5095344;28;20126;-84
2021/12/25 10:38:24;;;;;;;3.63;2.00;;;-1.90;99.90;;;;;;5095255;28;20048;-84
2021/12/25 10:40:50;;;;;;;1.95;1.48;;;-1.70;99.90;;;;;;5095476;28;20495;-83
2021/12/25 10:43:21;;;;;;;1.83;1.70;;;-1.80;99.90;;;;;;5095282;28;20404;-85
2021/12/25 10:46:02;;;;;;;3.55;1.67;;;-2.00;99.90;;;;;;5078351;28;20073;-84
2021/12/25 10:48:29;;;;;;;4.05;2.00;;;-1.90;99.90;;;;;;5078461;28;20134;-84
2021/12/25 10:50:55;;;;;;;2.17;1.40;;;-1.80;99.90;;;;;;5094702;28;20051;-84
2021/12/25 10:53:22;;;;;;;3.50;1.70;;;-0.20;99.90;;;;;;5129362;27;20475;-84
2021/12/25 10:55:48;;;;;;;1.70;1.58;;;-1.70;99.90;;;;;;5095074;28;20059;-84
2021/12/25 10:58:21;;;;;;;1.70;1.60;;;-1.60;99.90;;;;;;5112079;28;20096;-84
2021/12/25 11:00:55;;;;;;;6.95;1.80;;;-1.30;99.90;;;;;;5111911;28;20055;-84
2021/12/25 11:03:32;;;;;;;2.63;1.73;;;-0.60;99.90;;;;;;5129239;27;20079;-85
2021/12/25 11:06:06;;;;;;;4.38;1.70;;;-1.20;99.90;;;;;;5094268;28;20507;-84
2021/12/25 11:08:32;;;;;;;1.83;1.50;;;-1.80;99.90;;;;;;5094646;28;20061;-85
2021/12/25 11:11:15;;;;;;;3.72;1.73;;;-1.90;99.90;;;;;;5094385;28;20051;-85
2021/12/25 11:13:49;;;;;;;3.33;1.65;;;-0.60;99.90;;;;;;5079215;28;20372;-84
2021/12/25 11:16:16;;;;;;;1.88;1.50;;;-1.90;99.90;;;;;;5112117;28;20164;-84
2021/12/25 11:19:06;;;;;;;3.10;1.60;;;-1.90;99.90;;;;;;5111261;28;20089;-84
2021/12/25 11:21:42;;;;;;;1.55;1.42;;;-1.90;99.90;;;;;;5079023;28;20468;-84
2021/12/25 11:24:17;;;;;;;3.13;1.50;;;-1.80;99.90;;;;;;5096021;28;20046;-84
2021/12/25 11:26:46;;;;;;;;;;;-1.30;99.90;;;;;;5078217;28;20062;-84
2021/12/25 11:29:13;;;;;;;1.80;1.70;;;-1.80;99.90;;;;;;5111732;28;19927;-84
2021/12/25 11:31:40;;;;;;;2.80;1.67;;;-1.80;99.90;;;;;;5094314;28;20043;-83
2021/12/25 11:34:05;;;;;;;2.25;1.63;;;-1.80;99.90;;;;;;5110752;28;20094;-84
2021/12/25 11:36:42;;;;;;;3.17;1.45;;;-1.20;99.90;;;;;;5095302;28;20104;-84
2021/12/25 11:39:08;;;;;;;1.60;1.50;;;-1.70;99.90;;;;;;5095303;28;20040;-84
2021/12/25 11:41:35;;;;;;;2.60;1.60;;;-1.60;99.90;;;;;;5078467;28;20044;-84
2021/12/25 11:44:05;;;;;;;3.28;1.75;;;-1.60;99.90;;;;;;5100020;28;20492;-83
2021/12/25 11:46:41;;;;;;;3.33;1.83;;;-1.60;99.90;;;;;;5119425;28;20037;-83
2021/12/25 11:49:09;;;;;;;2.85;1.40;;;-1.50;99.90;;;;;;5096484;28;20062;-84
2021/12/25 11:51:35;;;;;;;2.63;1.90;;;-1.60;99.90;;;;;;5127972;27;20048;-84
2021/12/25 11:56:46;;;;;;;2.95;1.70;;;-1.60;99.90;;;;;;5077337;28;20051;-84
2021/12/25 11:59:13;;;;;;;4.28;1.70;;;-1.50;99.90;;;;;;5099338;27;20079;-85
2021/12/25 12:01:48;;;;;;;1.70;1.60;;;-0.90;99.90;;;;;;5077204;28;20039;-83
2021/12/25 12:04:18;;;;;;;2.45;1.55;;;-1.50;99.90;;;;;;5077894;28;20039;-84
2021/12/25 12:06:44;;;;;;;2.00;1.65;;;-1.50;99.90;;;;;;5094240;28;20097;-84
2021/12/25 12:09:13;;;;;;;5.47;1.70;;;-0.80;99.90;;;;;;5111713;28;20055;-85
2021/12/25 12:11:40;;;;;;;2.15;1.50;;;-0.40;99.90;;;;;;5110585;28;20383;-84
2021/12/25 12:14:26;;;;;;;3.72;1.60;;;-1.40;99.90;;;;;;5076475;28;20086;-85
2021/12/25 12:16:54;;;;;;;3.08;1.83;;;-1.40;99.90;;;;;;5093276;28;20173;-85
2021/12/25 12:19:36;;;;;;;4.22;1.48;;;-1.30;99.90;;;;;;5093338;28;20079;-84
2021/12/25 12:22:15;;;;;;;1.70;1.40;;;0.20;99.90;;;;;;5110415;28;20403;-84
2021/12/25 12:27:35;;;;;;;3.65;2.80;;;-1.20;99.90;;;;;;5095584;28;20052;-85
2021/12/25 12:30:02;;;;;;;4.70;2.50;;;-0.40;99.90;;;;;;5076057;28;20055;-85
2021/12/25 12:32:35;;;;;;;7.82;4.90;;;-0.50;99.90;;;;;;5076746;28;20093;-84
2021/12/25 12:35:02;;;;;;;3.35;1.70;;;-1.30;99.90;;;;;;5109270;28;20066;-84
2021/12/25 12:37:32;;;;;;;3.58;2.53;;;-1.40;99.90;;;;;;5110560;28;20115;-84
2021/12/25 12:40:03;;;;;;;23.10;8.93;;;-1.40;99.90;;;;;;5109673;28;20138;-84
2021/12/25 12:42:45;;;;;;;3.22;2.58;;;-1.40;99.90;;;;;;5110453;28;20066;-84
2021/12/25 12:45:20;;;;;;;6.90;3.75;;;-1.30;99.90;;;;;;5109977;28;20091;-84
2021/12/25 12:48:15;;;;;;;;;;;-1.30;99.90;;;;;;5078073;28;20112;-84
2021/12/25 12:50:52;;;;;;;7.80;4.72;;;-1.30;99.90;;;;;;5096609;28;19920;-83
2021/12/25 12:53:18;;;;;;;2.05;1.88;;;-1.20;99.90;;;;;;5110104;28;20108;-84
2021/12/25 12:55:45;;;;;;;5.20;2.10;;;-1.30;99.90;;;;;;5093270;28;20063;-84
2021/12/25 12:58:15;;;;;;;3.13;2.08;;;-1.20;99.90;;;;;;5092724;28;20453;-83
2021/12/25 13:00:55;;;;;;;2.53;2.00;;;-1.20;99.90;;;;;;5093448;28;20058;-83
2021/12/25 13:03:21;;;;;;;3.63;2.58;;;-1.30;99.90;;;;;;5076331;28;20047;-84
2021/12/25 13:05:52;;;;;;;5.10;1.80;;;0.10;99.90;;;;;;5076478;28;20060;-83
2021/12/25 13:08:28;;;;;;;6.35;2.50;;;-0.50;99.90;;;;;;5076720;28;20050;-84
2021/12/25 13:11:02;;;;;;;2.72;2.40;;;0.20;99.90;;;;;;5075842;28;20074;-84
2021/12/25 13:13:34;;;;;;;1.83;1.67;;;0.00;99.90;;;;;;5109809;28;20052;-84
2021/12/25 13:16:09;;;;;;;2.45;1.90;;;-1.10;99.90;;;;;;5093265;28;20043;-83
2021/12/25 13:18:36;;;;;;;9.02;4.00;;;-1.20;99.90;;;;;;5076972;28;20059;-84
2021/12/25 13:21:07;;;;;;;3.40;2.53;;;-1.30;99.90;;;;;;5126586;28;20087;-83
2021/12/25 13:23:46;;;;;;;2.65;2.45;;;-1.40;99.90;;;;;;5093357;28;20055;-82
2021/12/25 13:26:14;;;;;;;1.95;1.83;;;-0.60;99.90;;;;;;5092333;28;20079;-83
2021/12/25 13:28:41;;;;;;;3.63;3.13;;;-1.30;99.90;;;;;;5076399;28;20051;-83
2021/12/25 13:31:09;;;;;;;5.00;2.78;;;0.20;99.90;;;;;;5129276;27;20507;-83
2021/12/25 13:33:38;;;;;;;2.35;1.98;;;-1.40;99.90;;;;;;5114600;28;20494;-83
2021/12/25 13:36:09;;;;;;;3.40;3.10;;;-1.40;99.90;;;;;;5080142;28;20414;-83
2021/12/25 13:38:52;;;;;;;5.82;3.70;;;-1.40;99.90;;;;;;5113856;28;20054;-83
2021/12/25 13:41:37;;;;;;;4.13;2.47;;;-1.50;99.90;;;;;;5096489;28;20230;-83
2021/12/25 13:44:06;;;;;;;4.57;3.80;;;-1.50;99.90;;;;;;5096666;28;20563;-83
2021/12/25 13:46:48;;;;;;;2.17;2.05;;;-1.40;99.90;;;;;;5130614;27;20056;-83
2021/12/25 13:49:42;;;;;;;4.25;2.65;;;-1.40;99.90;;;;;;5112706;28;20044;-83
2021/12/25 13:52:20;;;;;;;6.68;2.60;;;-1.40;99.90;;;;;;5112420;28;20100;-84
2021/12/25 13:55:07;;;;;;;2.88;2.58;;;-1.50;99.90;;;;;;5097657;28;20048;-83
2021/12/25 13:57:34;;;;;;;4.07;1.90;;;-1.40;99.90;;;;;;5113199;28;20047;-83
2021/12/25 14:00:05;;;;;;;5.45;2.10;;;-1.30;99.90;;;;;;5130489;27;20056;-83
2021/12/25 14:02:31;;;;;;;6.72;2.42;;;-1.40;99.90;;;;;;5080071;28;20059;-83
2021/12/25 14:04:57;;;;;;;8.18;2.20;;;-1.50;99.90;;;;;;5095856;28;20047;-83
2021/12/25 14:07:25;;;;;;;3.58;2.30;;;-0.90;99.90;;;;;;5112481;28;20070;-83
2021/12/25 14:10:00;;;;;;;4.43;2.10;;;-1.40;99.90;;;;;;5129958;27;20131;-83
2021/12/25 14:12:27;;;;;;;4.53;2.65;;;-1.40;99.90;;;;;;5112578;28;20056;-83
2021/12/25 14:14:53;;;;;;;2.38;1.48;;;-1.50;99.90;;;;;;5096051;28;20546;-83
2021/12/25 14:17:19;;;;;;;1.90;1.73;;;-1.20;99.90;;;;;;5095962;28;20047;-83